createdAt,value
2018-09-18T00:00:22.715Z,99991.25
2018-09-18T00:02:50.442Z,99987.39
2018-09-18T00:05:18.887Z,99985.33
2018-09-18T00:07:46.637Z,99982.97
2018-09-18T00:10:14.361Z,99986.53
2018-09-18T00:12:42.047Z,99984.05
2018-09-18T00:15:09.814Z,99980.88
2018-09-18T00:17:37.546Z,99982.90
2018-09-18T00:20:05.383Z,99979.44
2018-09-18T00:22:33.087Z,99973.97
2018-09-18T00:25:01.209Z,99975.52
2018-09-18T00:27:28.915Z,99972.94
2018-09-18T00:29:56.681Z,99974.36
2018-09-18T00:32:24.425Z,99974.31
2018-09-18T00:34:52.239Z,99972.13
2018-09-18T00:37:20.023Z,99969.97
2018-09-18T00:39:47.743Z,99962.77
2018-09-18T00:42:15.518Z,99968.17
2018-09-18T00:44:43.272Z,99973.98
2018-09-18T00:47:11.002Z,99971.57
2018-09-18T00:49:38.710Z,99973.98
2018-09-18T00:52:06.435Z,99974.03
2018-09-18T00:54:34.111Z,99970.86
2018-09-18T00:57:01.955Z,99976.38
2018-09-18T00:59:29.719Z,99971.09
2018-09-18T01:01:57.434Z,99968.22
2018-09-18T01:04:25.373Z,99965.50
2018-09-18T01:06:53.043Z,99963.30
2018-09-18T01:09:20.762Z,99961.39
2018-09-18T01:11:48.508Z,99963.59
2018-09-18T01:14:16.580Z,99958.52
2018-09-18T01:16:44.352Z,99961.50
2018-09-18T01:19:12.026Z,99955.47
2018-09-18T01:21:39.834Z,99956.90
2018-09-18T01:24:07.631Z,99953.22
2018-09-18T01:26:35.311Z,99956.72
2018-09-18T01:29:06.923Z,99950.91
2018-09-18T01:31:34.731Z,99951.64
2018-09-18T01:34:02.675Z,99947.56
2018-09-18T01:36:30.590Z,99944.80
2018-09-18T01:38:58.343Z,99948.70
2018-09-18T01:41:26.078Z,99950.43
2018-09-18T01:43:53.952Z,99951.50
2018-09-18T01:46:21.627Z,99952.16
2018-09-18T01:48:49.343Z,99950.43
2018-09-18T01:51:17.324Z,99958.89
2018-09-18T01:53:45.228Z,99960.43
2018-09-18T01:56:12.936Z,99964.10
2018-09-18T01:58:40.619Z,99970.31
2018-09-18T02:01:08.492Z,99976.05
2018-09-18T02:03:36.331Z,99975.02
2018-09-18T02:06:04.004Z,99971.89
2018-09-18T02:08:31.842Z,99966.11
2018-09-18T02:10:59.537Z,99972.00
2018-09-18T02:13:27.339Z,99961.15
2018-09-18T02:15:55.037Z,99965.41
2018-09-18T02:18:22.750Z,99969.63
2018-09-18T02:20:50.493Z,99971.09
2018-09-18T02:23:18.289Z,99977.17
2018-09-18T02:25:46.035Z,99976.06
2018-09-18T02:28:13.771Z,99975.98
2018-09-18T02:30:41.522Z,99982.19
2018-09-18T02:33:12.680Z,99971.12
2018-09-18T02:35:40.466Z,99980.77
2018-09-18T02:38:08.115Z,99977.23
2018-09-18T02:40:35.936Z,99983.81
2018-09-18T02:43:03.657Z,99976.49
2018-09-18T02:45:31.574Z,99975.27
2018-09-18T02:47:59.262Z,99987.31
2018-09-18T02:50:26.938Z,99993.11
2018-09-18T02:52:54.594Z,99994.20
2018-09-18T02:55:22.392Z,99992.29
2018-09-18T02:57:50.087Z,99992.08
2018-09-18T03:00:17.771Z,99996.42
2018-09-18T03:02:45.776Z,99999.58
2018-09-18T03:05:13.933Z,99997.66
2018-09-18T03:07:41.595Z,99999.59
2018-09-18T03:10:09.268Z,99998.26
2018-09-18T03:15:41.152Z,99990.82
2018-09-18T03:18:08.880Z,99990.23
2018-09-18T03:20:36.635Z,99990.54
2018-09-18T03:23:04.438Z,99991.05
2018-09-18T03:25:32.237Z,99994.94
2018-09-18T03:28:00.106Z,99990.24
2018-09-18T03:30:27.954Z,99995.84
2018-09-18T03:32:55.760Z,99997.08
2018-09-18T03:35:23.713Z,99996.36
2018-09-18T03:37:51.440Z,99996.78
2018-09-18T03:40:19.320Z,99997.59
2018-09-18T03:42:47.413Z,100001.36
2018-09-18T03:45:15.194Z,100000.33
2018-09-18T03:47:42.879Z,99998.52
2018-09-18T03:50:10.620Z,100002.09
2018-09-18T03:52:38.680Z,99999.45
2018-09-18T03:55:06.461Z,99999.54
2018-09-18T03:57:34.212Z,99999.84
2018-09-18T04:00:02.164Z,99996.09
2018-09-18T04:02:29.955Z,99996.30
2018-09-18T04:04:57.634Z,99990.81
2018-09-18T04:07:25.675Z,99984.72
2018-09-18T04:09:53.378Z,99981.57
2018-09-18T04:12:21.062Z,99987.75
2018-09-18T04:14:48.781Z,99975.77
2018-09-18T04:17:16.497Z,99981.15
2018-09-18T04:19:44.295Z,99976.80
2018-09-18T04:22:12.063Z,99977.39
2018-09-18T04:24:40.115Z,99977.81
2018-09-18T04:27:07.808Z,99969.08
2018-09-18T04:29:36.204Z,99972.83
2018-09-18T04:32:04.012Z,99968.36
2018-09-18T04:34:31.766Z,99971.42
2018-09-18T04:36:59.502Z,99959.42
2018-09-18T04:39:27.207Z,99964.10
2018-09-18T04:41:54.971Z,99967.05
2018-09-18T04:44:22.781Z,99960.35
2018-09-18T04:46:51.044Z,99958.22
2018-09-18T04:49:18.762Z,99961.38
2018-09-18T04:51:46.440Z,99972.03
2018-09-18T04:54:15.173Z,99979.23
2018-09-18T04:56:43.060Z,99982.59
2018-09-18T04:59:10.834Z,99978.42
2018-09-18T05:01:38.564Z,99981.36
2018-09-18T05:04:06.268Z,99978.89
2018-09-18T05:06:34.068Z,99974.92
2018-09-18T05:09:02.126Z,99984.38
2018-09-18T05:11:30.642Z,99989.44
2018-09-18T05:13:58.342Z,99995.73
2018-09-18T05:16:26.018Z,100000.00
2018-09-18T05:18:53.723Z,100000.00
2018-09-18T05:21:21.450Z,100002.11
2018-09-18T05:23:49.154Z,100004.88
2018-09-18T05:26:16.824Z,100000.42
2018-09-18T05:28:44.528Z,100011.28
2018-09-18T05:31:12.277Z,100012.61
2018-09-18T05:33:40.028Z,100010.25
2018-09-18T05:36:07.688Z,100011.06
2018-09-18T05:38:35.415Z,100013.50
2018-09-18T05:41:03.130Z,100008.71
2018-09-18T05:43:31.044Z,100016.63
2018-09-18T05:45:58.754Z,100018.16
2018-09-18T05:48:29.013Z,100019.98
2018-09-18T05:50:56.774Z,100020.81
2018-09-18T05:53:24.436Z,100017.67
2018-09-18T05:55:52.114Z,100023.56
2018-09-18T05:58:19.840Z,100029.48
2018-09-18T06:00:47.599Z,100026.55
2018-09-18T06:03:15.348Z,100025.56
2018-09-18T06:05:43.115Z,100026.08
2018-09-18T06:08:10.840Z,100033.87
2018-09-18T06:10:38.551Z,100041.72
2018-09-18T06:13:06.304Z,100036.23
2018-09-18T06:15:34.016Z,100039.48
2018-09-18T06:18:01.693Z,100034.50
2018-09-18T06:20:29.380Z,100034.50
2018-09-18T06:22:57.152Z,100039.79
2018-09-18T06:25:24.853Z,100042.04
2018-09-18T06:27:52.575Z,100049.77
2018-09-18T06:30:20.375Z,100045.41
2018-09-18T06:32:48.128Z,100049.97
2018-09-18T06:35:15.970Z,100055.77
2018-09-18T06:37:43.623Z,100053.13
2018-09-18T06:40:11.485Z,100054.95
2018-09-18T06:42:39.324Z,100057.09
2018-09-18T06:45:07.028Z,100051.80
2018-09-18T06:47:34.787Z,100056.57
2018-09-18T06:50:02.655Z,100058.39
2018-09-18T06:52:30.378Z,100049.81
2018-09-18T06:54:58.132Z,100050.73
2018-09-18T06:57:25.823Z,100051.11
2018-09-18T06:59:53.492Z,100043.34
2018-09-18T07:02:21.273Z,100046.77
2018-09-18T07:04:48.958Z,100044.97
2018-09-18T07:07:16.647Z,100041.88
2018-09-18T07:09:44.723Z,100045.30
2018-09-18T07:12:12.378Z,100042.18
2018-09-18T07:14:40.093Z,100045.27
2018-09-18T07:17:07.811Z,100043.30
2018-09-18T07:19:35.556Z,100047.89
2018-09-18T07:22:03.280Z,100050.02
2018-09-18T07:24:30.984Z,100051.23
2018-09-18T07:26:58.671Z,100047.45
2018-09-18T07:29:26.416Z,100056.10
2018-09-18T07:31:54.363Z,100049.35
2018-09-18T07:34:22.043Z,100050.34
2018-09-18T07:36:49.840Z,100060.73
2018-09-18T07:39:17.538Z,100063.39
2018-09-18T07:41:45.259Z,100052.08
2018-09-18T07:44:12.973Z,100049.20
2018-09-18T07:46:40.679Z,100051.66
2018-09-18T07:49:08.351Z,100046.19
2018-09-18T07:51:36.088Z,100044.66
2018-09-18T07:54:04.247Z,100047.32
2018-09-18T07:56:31.992Z,100049.34
2018-09-18T07:59:00.458Z,100048.62
2018-09-18T08:01:28.858Z,100041.44
2018-09-18T08:03:56.524Z,100039.38
2018-09-18T08:06:24.460Z,100029.76
2018-09-18T08:08:52.196Z,100037.84
2018-09-18T08:11:19.915Z,100038.09
2018-09-18T08:13:47.594Z,100032.35
2018-09-18T08:16:15.291Z,100033.11
2018-09-18T08:18:43.105Z,100033.33
2018-09-18T08:21:10.871Z,100038.23
2018-09-18T08:23:38.560Z,100044.19
2018-09-18T08:26:07.249Z,100039.23
2018-09-18T08:28:34.922Z,100042.52
2018-09-18T08:31:02.676Z,100041.16
2018-09-18T08:33:30.676Z,100034.91
2018-09-18T08:35:58.510Z,100037.78
2018-09-18T08:38:26.171Z,100036.30
2018-09-18T08:40:53.870Z,100031.86
2018-09-18T08:43:21.532Z,100030.81
2018-09-18T08:45:49.257Z,100027.83
2018-09-18T08:48:16.943Z,100030.75
2018-09-18T08:50:44.659Z,100024.73
2018-09-18T08:53:12.387Z,100031.86
2018-09-18T08:55:40.173Z,100032.52
2018-09-18T08:58:08.225Z,100026.41
2018-09-18T09:00:36.015Z,100036.16
2018-09-18T09:03:03.795Z,100029.48
2018-09-18T09:05:31.977Z,100027.56
2018-09-18T09:07:59.736Z,100036.06
2018-09-18T09:10:27.498Z,100040.32
2018-09-18T09:12:55.607Z,100036.67
2018-09-18T09:15:23.309Z,100031.85
2018-09-18T09:17:51.062Z,100031.20
2018-09-18T09:20:18.771Z,100035.25
2018-09-18T09:22:46.510Z,100035.34
2018-09-18T09:25:14.236Z,100034.09
2018-09-18T09:27:42.665Z,100033.60
2018-09-18T09:30:10.397Z,100025.27
2018-09-18T09:32:38.154Z,100028.16
2018-09-18T09:35:05.897Z,100018.38
2018-09-18T09:37:33.850Z,100026.84
2018-09-18T09:40:01.612Z,100027.06
2018-09-18T09:42:29.390Z,100019.20
2018-09-18T09:44:57.154Z,100022.49
2018-09-18T09:47:24.815Z,100019.52
2018-09-18T09:49:52.774Z,100016.16
2018-09-18T09:52:20.730Z,100020.36
2018-09-18T09:54:49.413Z,100017.20
2018-09-18T09:57:17.099Z,100012.56
2018-09-18T09:59:44.858Z,100015.64
2018-09-18T10:02:15.733Z,100013.06
2018-09-18T10:04:43.544Z,100015.90
2018-09-18T10:07:11.355Z,100020.61
2018-09-18T10:09:39.037Z,100024.92
2018-09-18T10:12:06.835Z,100029.20
2018-09-18T10:14:34.512Z,100017.27
2018-09-18T10:17:02.195Z,100018.70
2018-09-18T10:19:29.955Z,100023.52
2018-09-18T10:21:57.639Z,100024.19
2018-09-18T10:24:25.321Z,100020.25
2018-09-18T10:26:53.069Z,100022.59
2018-09-18T10:29:24.630Z,100025.25
2018-09-18T10:31:52.557Z,100017.80
2018-09-18T10:34:20.232Z,100018.11
2018-09-18T10:36:47.987Z,100021.84
2018-09-18T10:39:15.703Z,100021.13
2018-09-18T10:41:43.420Z,100021.05
2018-09-18T10:44:11.225Z,100013.21
2018-09-18T10:46:38.891Z,100015.95
2018-09-18T10:49:06.700Z,100016.50
2018-09-18T10:51:34.461Z,100011.20
2018-09-18T10:54:02.188Z,100002.49
2018-09-18T10:56:29.909Z,99998.69
2018-09-18T10:58:57.672Z,100003.54
2018-09-18T11:01:25.464Z,100001.70
2018-09-18T11:03:53.157Z,99999.92
2018-09-18T11:06:20.959Z,100005.58
2018-09-18T11:08:48.618Z,99997.46
2018-09-18T11:11:16.389Z,99994.61
2018-09-18T11:13:44.074Z,99999.50
2018-09-18T11:16:11.934Z,99987.47
2018-09-18T11:18:39.441Z,99990.81
2018-09-18T11:21:07.323Z,99989.78
2018-09-18T11:23:34.986Z,99980.49
2018-09-18T11:26:02.779Z,99987.42
2018-09-18T11:28:30.491Z,99988.27
2018-09-18T11:30:58.191Z,99978.76
2018-09-18T11:33:25.950Z,99972.63
2018-09-18T11:35:53.611Z,99967.87
2018-09-18T11:38:21.567Z,99959.05
2018-09-18T11:40:49.342Z,99964.78
2018-09-18T11:43:16.990Z,99963.16
2018-09-18T11:45:44.921Z,99961.77
2018-09-18T11:48:12.684Z,99961.09
2018-09-18T11:50:44.234Z,99965.47
2018-09-18T11:53:12.084Z,99968.72
2018-09-18T11:55:39.884Z,99961.23
2018-09-18T11:58:07.603Z,99960.29
2018-09-18T12:00:35.385Z,99959.44
2018-09-18T12:03:03.149Z,99958.19
2018-09-18T12:05:30.859Z,99962.39
2018-09-18T12:07:58.552Z,99963.64
2018-09-18T12:10:26.278Z,99966.96
2018-09-18T12:12:53.980Z,99960.84
2018-09-18T12:15:21.659Z,99960.77
2018-09-18T12:17:49.312Z,99963.77
2018-09-18T12:20:17.048Z,99958.47
2018-09-18T12:22:44.745Z,99956.69
2018-09-18T12:25:12.427Z,99956.37
2018-09-18T12:27:40.172Z,99950.89
2018-09-18T12:30:08.080Z,99943.23
2018-09-18T12:32:35.995Z,99951.53
2018-09-18T12:35:03.752Z,99948.77
2018-09-18T12:37:31.660Z,99946.27
2018-09-18T12:39:59.368Z,99943.10
2018-09-18T12:42:27.088Z,99940.41
2018-09-18T12:44:54.785Z,99942.16
2018-09-18T12:47:22.467Z,99932.68
2018-09-18T12:49:50.413Z,99924.75
2018-09-18T12:52:21.316Z,99922.19
2018-09-18T12:54:49.314Z,99923.95
2018-09-18T12:57:17.222Z,99916.42
2018-09-18T12:59:44.934Z,99917.63
2018-09-18T13:02:12.729Z,99908.25
2018-09-18T13:04:40.395Z,99904.90
2018-09-18T13:07:08.145Z,99906.20
2018-09-18T13:09:35.808Z,99899.71
2018-09-18T13:12:03.527Z,99897.89
2018-09-18T13:14:31.190Z,99895.23
2018-09-18T13:16:58.876Z,99898.54
2018-09-18T13:19:26.602Z,99894.77
2018-09-18T13:21:54.498Z,99885.56
2018-09-18T13:24:22.178Z,99883.38
2018-09-18T13:26:49.958Z,99880.36
2018-09-18T13:29:17.882Z,99874.99
2018-09-18T13:31:45.612Z,99869.31
2018-09-18T13:34:13.385Z,99868.84
2018-09-18T13:36:41.096Z,99870.48
2018-09-18T13:39:09.037Z,99870.15
2018-09-18T13:41:36.785Z,99866.89
2018-09-18T13:44:04.473Z,99860.97
2018-09-18T13:46:32.238Z,99855.27
2018-09-18T13:48:59.934Z,99855.99
2018-09-18T13:51:27.646Z,99855.63
2018-09-18T13:53:55.544Z,99860.55
2018-09-18T13:56:23.394Z,99858.58
2018-09-18T13:58:51.138Z,99867.28
2018-09-18T14:01:19.091Z,99862.71
2018-09-18T14:03:46.900Z,99859.75
2018-09-18T14:06:14.713Z,99855.30
2018-09-18T14:08:42.451Z,99860.02
2018-09-18T14:11:10.196Z,99855.96
2018-09-18T14:14:31.788Z,99847.48
2018-09-18T14:17:17.561Z,99845.64
2018-09-18T14:19:45.320Z,99853.09
2018-09-18T14:22:13.130Z,99854.98
2018-09-18T14:24:41.020Z,99852.44
2018-09-18T14:27:08.754Z,99859.84
2018-09-18T14:29:36.766Z,99857.39
2018-09-18T14:32:04.639Z,99862.32
2018-09-18T14:34:32.264Z,99862.23
2018-09-18T14:37:00.155Z,99863.59
2018-09-18T14:39:27.961Z,99860.84
2018-09-18T14:41:55.759Z,99863.47
2018-09-18T14:44:23.467Z,99866.32
2018-09-18T14:46:51.276Z,99869.56
2018-09-18T14:49:19.020Z,99874.66
2018-09-18T14:51:46.788Z,99875.61
2018-09-18T14:54:14.510Z,99878.85
2018-09-18T14:56:42.296Z,99871.81
2018-09-18T14:59:10.087Z,99874.73
2018-09-18T15:01:38.210Z,99871.87
2018-09-18T15:04:06.031Z,99882.12
2018-09-18T15:06:33.817Z,99878.79
2018-09-18T15:09:01.610Z,99884.58
2018-09-18T15:11:29.452Z,99889.34
2018-09-18T15:16:59.807Z,99892.10
2018-09-18T15:19:27.614Z,99890.58
2018-09-18T15:21:55.389Z,99892.26
2018-09-18T15:24:23.095Z,99900.42
2018-09-18T15:26:50.758Z,99896.67
2018-09-18T15:29:18.448Z,99903.11
2018-09-18T15:31:46.194Z,99905.00
2018-09-18T15:34:14.044Z,99905.75
2018-09-18T15:36:42.038Z,99903.80
2018-09-18T15:39:09.763Z,99892.33
2018-09-18T15:41:38.045Z,99883.20
2018-09-18T15:44:05.779Z,99879.16
2018-09-18T15:46:33.884Z,99875.07
2018-09-18T15:49:01.668Z,99876.12
2018-09-18T15:51:29.407Z,99872.23
2018-09-18T15:53:57.418Z,99877.27
2018-09-18T15:56:25.239Z,99879.95
2018-09-18T15:58:53.015Z,99879.66
2018-09-18T16:01:20.770Z,99882.35
2018-09-18T16:03:48.532Z,99888.34
2018-09-18T16:06:16.228Z,99887.13
2018-09-18T16:08:43.907Z,99885.48
2018-09-18T16:11:11.583Z,99889.86
2018-09-18T16:13:39.405Z,99889.55
2018-09-18T16:16:07.539Z,99907.30
2018-09-18T16:18:35.307Z,99912.76
2018-09-18T16:21:03.028Z,99925.51
2018-09-18T16:23:30.774Z,99923.17
2018-09-18T16:25:58.651Z,99916.50
2018-09-18T16:28:26.488Z,99913.78
2018-09-18T16:30:54.640Z,99912.50
2018-09-18T16:33:22.607Z,99910.90
2018-09-18T16:35:53.950Z,99912.53
2018-09-18T16:38:22.932Z,99912.58
2018-09-18T16:40:50.835Z,99905.09
2018-09-18T16:43:18.550Z,99904.88
2018-09-18T16:45:46.847Z,99907.07
2018-09-18T16:48:15.218Z,99901.17
2018-09-18T16:50:43.032Z,99907.93
2018-09-18T16:53:10.901Z,99909.58
2018-09-18T16:55:38.632Z,99908.55
2018-09-18T16:58:06.400Z,99915.55
2018-09-18T17:00:34.124Z,99918.32
2018-09-18T17:03:02.349Z,99926.91
2018-09-18T17:05:30.177Z,99933.92
2018-09-18T17:07:57.919Z,99941.98
2018-09-18T17:10:25.759Z,99945.74
2018-09-18T17:12:53.509Z,99941.44
2018-09-18T17:15:23.579Z,99932.33
2018-09-18T17:17:52.475Z,99945.75
2018-09-18T17:20:20.144Z,99956.76
2018-09-18T17:22:48.189Z,99958.05
2018-09-18T17:25:16.015Z,99949.20
2018-09-18T17:27:43.816Z,99938.99
2018-09-18T17:30:11.588Z,99939.53
2018-09-18T17:32:39.379Z,99935.75
2018-09-18T17:35:07.392Z,99948.08
2018-09-18T17:37:35.368Z,99950.44
2018-09-18T17:40:07.477Z,99951.46
2018-09-18T17:42:35.183Z,99944.74
2018-09-18T17:45:05.184Z,99946.83
2018-09-18T17:47:32.960Z,99949.15
2018-09-18T17:50:00.842Z,99961.16
2018-09-18T17:52:28.506Z,99963.75
2018-09-18T17:54:56.300Z,99967.88
2018-09-18T17:57:24.128Z,99969.13
2018-09-18T17:59:51.930Z,99968.78
2018-09-18T18:02:19.679Z,99970.03
2018-09-18T18:04:47.343Z,99973.44
2018-09-18T18:07:15.176Z,99982.47
2018-09-18T18:09:43.080Z,99985.67
2018-09-18T18:12:10.826Z,99985.36
2018-09-18T18:14:38.585Z,99986.37
2018-09-18T18:17:06.335Z,99991.66
2018-09-18T18:19:34.161Z,99987.33
2018-09-18T18:22:02.422Z,99985.93
2018-09-18T18:24:30.112Z,99989.88
2018-09-18T18:26:57.960Z,99990.65
2018-09-18T18:29:25.787Z,99992.45
2018-09-18T18:31:53.523Z,99983.30
2018-09-18T18:34:21.729Z,99985.65
2018-09-18T18:36:49.451Z,99985.88
2018-09-18T18:39:17.155Z,99996.52
2018-09-18T18:41:45.066Z,100000.23
2018-09-18T18:44:12.772Z,100005.51
2018-09-18T18:46:40.603Z,100008.36
2018-09-18T18:49:08.287Z,100011.77
2018-09-18T18:51:36.176Z,100013.83
2018-09-18T18:54:04.000Z,100011.42
2018-09-18T18:56:31.881Z,100011.36
2018-09-18T18:58:59.787Z,100014.84
2018-09-18T19:01:28.089Z,100021.56
2018-09-18T19:03:55.900Z,100020.77
2018-09-18T19:06:23.866Z,100030.03
2018-09-18T19:08:51.513Z,100039.91
2018-09-18T19:11:19.567Z,100034.23
2018-09-18T19:13:47.619Z,100049.98
2018-09-18T19:16:15.366Z,100051.59
2018-09-18T19:18:43.372Z,100049.45
2018-09-18T19:21:11.157Z,100059.88
2018-09-18T19:23:39.901Z,100069.80
2018-09-18T19:26:07.692Z,100070.02
2018-09-18T19:28:35.377Z,100064.48
2018-09-18T19:31:03.108Z,100064.38
2018-09-18T19:33:30.957Z,100070.00
2018-09-18T19:35:58.747Z,100070.19
2018-09-18T19:38:26.577Z,100076.65
2018-09-18T19:40:54.241Z,100079.54
2018-09-18T19:43:22.175Z,100087.87
2018-09-18T19:45:49.832Z,100096.61
2018-09-18T19:48:17.743Z,100092.30
2018-09-18T19:50:45.539Z,100099.89
2018-09-18T19:53:13.588Z,100114.49
2018-09-18T19:55:41.374Z,100117.58
2018-09-18T19:58:09.175Z,100114.51
2018-09-18T20:00:36.888Z,100118.42
2018-09-18T20:03:08.327Z,100117.00
2018-09-18T20:05:36.012Z,100123.61
2018-09-18T20:08:03.803Z,100120.78
2018-09-18T20:10:31.519Z,100126.33
2018-09-18T20:12:59.357Z,100129.98
2018-09-18T20:15:27.435Z,100131.19
2018-09-18T20:17:55.114Z,100130.84
2018-09-18T20:20:22.803Z,100138.47
2018-09-18T20:22:50.634Z,100133.84
2018-09-18T20:25:18.584Z,100141.70
2018-09-18T20:27:46.270Z,100136.33
2018-09-18T20:30:14.363Z,100133.88
2018-09-18T20:32:42.040Z,100131.70
2018-09-18T20:35:09.834Z,100130.75
2018-09-18T20:37:37.743Z,100136.43
2018-09-18T20:40:05.924Z,100132.81
2018-09-18T20:42:33.688Z,100139.15
2018-09-18T20:45:01.782Z,100138.03
2018-09-18T20:47:29.623Z,100139.08
2018-09-18T20:49:57.516Z,100150.39
2018-09-18T20:52:25.196Z,100151.77
2018-09-18T20:54:52.986Z,100154.03
2018-09-18T20:57:20.681Z,100155.84
2018-09-18T20:59:48.460Z,100156.05
2018-09-18T21:02:16.342Z,100164.53
2018-09-18T21:04:44.031Z,100170.38
2018-09-18T21:07:11.848Z,100174.53
2018-09-18T21:09:39.864Z,100173.69
2018-09-18T21:12:07.561Z,100167.88
2018-09-18T21:14:35.248Z,100171.17
2018-09-18T21:17:02.942Z,100172.61
2018-09-18T21:19:30.676Z,100175.98
2018-09-18T21:22:04.415Z,100164.88
2018-09-18T21:24:32.143Z,100169.47
2018-09-18T21:27:00.257Z,100168.77
2018-09-18T21:29:27.975Z,100178.41
2018-09-18T21:31:55.660Z,100181.75
2018-09-18T21:34:23.319Z,100186.64
2018-09-18T21:36:51.025Z,100185.17
2018-09-18T21:39:18.707Z,100186.88
2018-09-18T21:41:46.393Z,100185.21
2018-09-18T21:44:14.145Z,100188.77
2018-09-18T21:46:41.887Z,100195.33
2018-09-18T21:49:09.551Z,100201.63
2018-09-18T21:51:37.220Z,100203.28
2018-09-18T21:54:04.965Z,100204.81
2018-09-18T21:56:32.769Z,100208.16
2018-09-18T21:59:00.690Z,100207.20
2018-09-18T22:01:28.427Z,100200.98
2018-09-18T22:03:56.163Z,100199.08
2018-09-18T22:06:23.827Z,100203.53
2018-09-18T22:08:51.577Z,100205.58
2018-09-18T22:11:20.534Z,100192.73
2018-09-18T22:13:48.288Z,100190.06
2018-09-18T22:16:15.978Z,100186.83
2018-09-18T22:18:43.728Z,100191.12
2018-09-18T22:21:11.425Z,100194.59
2018-09-18T22:23:39.261Z,100191.65
2018-09-18T22:26:07.363Z,100184.47
2018-09-18T22:28:35.047Z,100186.88
2018-09-18T22:31:02.834Z,100177.95
2018-09-18T22:33:30.588Z,100169.41
2018-09-18T22:35:58.307Z,100172.64
2018-09-18T22:38:25.996Z,100174.12
2018-09-18T22:40:53.699Z,100167.33
2018-09-18T22:43:21.749Z,100170.94
2018-09-18T22:45:49.442Z,100172.21
2018-09-18T22:48:17.272Z,100179.37
2018-09-18T22:50:44.997Z,100187.41
2018-09-18T22:53:12.788Z,100193.96
2018-09-18T22:55:47.428Z,100198.75
2018-09-18T22:58:15.186Z,100202.73
2018-09-18T23:00:42.906Z,100196.39
2018-09-18T23:03:13.819Z,100186.00
2018-09-18T23:05:41.860Z,100185.62
2018-09-18T23:08:09.546Z,100184.88
2018-09-18T23:10:37.215Z,100193.94
2018-09-18T23:13:04.938Z,100195.72
2018-09-18T23:15:32.620Z,100197.98
2018-09-18T23:18:00.273Z,100200.28
2018-09-18T23:20:27.959Z,100205.75
2018-09-18T23:22:55.631Z,100194.45
2018-09-18T23:25:23.411Z,100194.23
2018-09-18T23:27:51.205Z,100190.02
2018-09-18T23:30:18.924Z,100191.34
2018-09-18T23:32:46.594Z,100191.52
2018-09-18T23:35:14.455Z,100187.92
2018-09-18T23:37:42.576Z,100185.09
2018-09-18T23:40:10.291Z,100186.19
2018-09-18T23:42:38.102Z,100184.73
2018-09-18T23:45:05.994Z,100182.81
2018-09-18T23:47:33.820Z,100179.98
2018-09-18T23:50:01.643Z,100182.34
2018-09-18T23:52:29.331Z,100190.59
2018-09-18T23:54:57.005Z,100188.23
2018-09-18T23:57:25.160Z,100190.08
2018-09-18T23:59:52.954Z,100192.22
